KTAN Airport (Taunton Muni - King Field) Information

FAA: TAN - ICAO: KTAN

KTAN Airport Location

State Massachusetts
County Bristol
City Taunton
KTAN Airport is 3 miles east of Taunton, MA.
Latitude 41-52-28.0826N
Longitude 071-00-58.7394W
Elevation 41ft

KTAN Airport METARs

METAR KTAN 201852Z AUTO 21007KT 10SM CLR 29/16 A2976 RMK AO2 SLP076 T02890156
Altimeter 29.76"
Temperature 28.9°C (84.0°F)
Wind 210° at 7KT
Clouds Skies are clear.
Visibility 10.0mi
Time observed: 2021-06-20T18:52:00Z

KTAN Airport Details

Status Operational
Activation N/A
Ownership Public
Usage Public
Chart NEW YORK
ATC on-site No
Beacon schedule sunset-sunrise
Beacon color clear green

KTAN Airport Contacts

Owner CITY OF TAUNTON
Owner address CITY HALL, 15 SUMMER STREET, TAUNTON, MA 02780
Owner phone 508-821-1000
Manager DANEIL A SCIBELLI
Manager address 106 FOSTER RD, SOUTHWICK, MA 01077
Manager phone 413-569-9038

KTAN Airport (Taunton Muni - King Field) Radio Frequencies

KTAN (Airport) Radio Frequencies

UNICOM 122.7
Common traffic advisory frequency (CTAF) 122.7